Time;durP1;ratioP1;P1;durP2;ratioP2;P2;SDS_P1;SDS_P2;PMS_P1;PMS_P2;Temp;Humidity;BMP_temperature;BMP_pressure;BME280_temperature;BME280_humidity;BME280_pressure;Samples;Min_cycle;Max_cycle;Signal;HPM_P1;HPM_P2
2022/12/13 00:01:56;;;;;;;;;56.00;40.00;;;;;-2.48;100.00;99141.47;6276909;20;2500265;-50
2022/12/13 00:04:25;;;;;;;;;53.00;41.33;;;;;-2.50;100.00;99142.38;6279928;20;2875404;-51
2022/12/13 00:06:53;;;;;;;;;47.50;36.50;;;;;-2.65;100.00;99139.16;6309663;20;2500393;-50
2022/12/13 00:09:22;;;;;;;;;45.00;34.00;;;;;-2.54;100.00;99152.09;6282283;20;2871293;-48
2022/12/13 00:11:51;;;;;;;;;51.00;39.00;;;;;-2.51;100.00;99151.19;6273042;20;2500281;-50
2022/12/13 00:14:18;;;;;;;;;51.00;43.00;;;;;-2.51;100.00;99146.78;6278151;20;2500390;-50
2022/12/13 00:16:49;;;;;;;;;50.33;41.33;;;;;-2.45;100.00;99157.22;6279748;20;3597349;-47
2022/12/13 00:19:18;;;;;;;;;43.00;38.50;;;;;-2.58;100.00;99150.44;6280653;20;2500345;-47
2022/12/13 00:21:47;;;;;;;;;49.67;35.67;;;;;-2.59;100.00;99153.94;6282250;20;2875300;-49
2022/12/13 00:24:15;;;;;;;;;58.50;44.00;;;;;-2.46;100.00;99152.81;6306595;20;2500282;-48
2022/12/13 00:26:45;;;;;;;;;66.33;44.33;;;;;-2.59;100.00;99153.94;6280958;20;2887927;-48
2022/12/13 00:29:13;;;;;;;;;51.50;42.50;;;;;-2.56;100.00;99156.50;6307341;20;2873273;-51
2022/12/13 00:31:43;;;;;;;;;60.50;43.50;;;;;-2.58;100.00;99157.41;6275701;20;3626401;-48
2022/12/13 00:34:28;;;;;;;;;53.00;41.50;;;;;-2.60;100.00;99161.88;6307309;20;2500293;-51
2022/12/13 00:36:57;;;;;;;;;51.00;36.50;;;;;-2.39;100.00;99168.50;6276604;20;2866956;-47
2022/12/13 00:39:26;;;;;;;;;55.50;44.50;;;;;-2.46;100.00;99159.84;6276949;20;2500280;-48
2022/12/13 00:41:55;;;;;;;;;51.50;42.50;;;;;-2.46;100.00;99165.09;6278878;20;2500362;-50
2022/12/13 00:44:23;;;;;;;;;42.50;34.00;;;;;-2.42;100.00;99161.53;6280694;20;2862844;-49
2022/12/13 00:46:53;;;;;;;;;67.33;49.33;;;;;-2.59;100.00;99164.44;6281587;20;2868035;-48
2022/12/13 00:49:22;;;;;;;;;68.00;46.00;;;;;-2.56;100.00;99164.38;6309458;20;2873243;-50
2022/12/13 00:51:51;;;;;;;;;65.50;48.50;;;;;-2.55;100.00;99165.28;6280398;20;2862928;-48
2022/12/13 00:54:20;;;;;;;;;63.50;45.50;;;;;-2.62;100.00;99168.91;6279875;20;2875275;-46
2022/12/13 00:56:50;;;;;;;;;60.00;43.00;;;;;-2.52;100.00;99168.72;6284689;20;2500344;-47
2022/12/13 00:59:19;;;;;;;;;72.50;49.50;;;;;-2.59;100.00;99168.84;6311547;20;2863820;-48
2022/12/13 01:01:48;;;;;;;;;81.00;57.00;;;;;-2.72;100.00;99171.66;6280928;20;2889233;-47
2022/12/13 01:04:17;;;;;;;;;74.50;57.00;;;;;-2.79;100.00;99172.66;6279030;20;2868095;-51
2022/12/13 01:06:48;;;;;;;;;56.50;45.50;;;;;-2.64;100.00;99176.78;6281753;20;2866043;-50
2022/12/13 01:09:28;;;;;;;;;67.00;49.50;;;;;-2.56;100.00;99181.91;6276948;20;2864859;-49
2022/12/13 01:12:04;;;;;;;;;52.50;43.00;;;;;-2.57;100.00;99183.69;6276542;20;2500301;-51
2022/12/13 01:14:36;;;;;;;;;57.50;46.00;;;;;-2.60;100.00;99183.75;6277394;20;2493717;-49
2022/12/13 01:17:06;;;;;;;;;64.00;51.00;;;;;-2.78;100.00;99184.03;6279697;20;2861765;-51
2022/12/13 01:19:36;;;;;;;;;66.33;46.67;;;;;-2.68;100.00;99183.88;6280679;20;2891009;-47
2022/12/13 01:22:06;;;;;;;;;54.00;45.50;;;;;-2.66;100.00;99189.06;6312320;20;2849373;-48
2022/12/13 01:24:35;;;;;;;;;66.50;47.50;;;;;-2.75;100.00;99184.00;6279320;20;2862985;-49
2022/12/13 01:27:04;;;;;;;;;53.50;45.50;;;;;-2.68;100.00;99185.63;6278340;20;2872229;-46
2022/12/13 01:29:33;;;;;;;;;52.00;47.00;;;;;-2.78;100.00;99190.16;6279123;20;2871243;-51
2022/12/13 01:32:01;;;;;;;;;53.00;45.00;;;;;-2.68;100.00;99183.00;6282882;20;2865003;-51
2022/12/13 01:34:29;;;;;;;;;55.00;44.50;;;;;-2.67;100.00;99176.84;6277378;20;2500288;-50
2022/12/13 01:36:57;;;;;;;;;65.00;51.00;;;;;-2.76;100.00;99182.28;6276719;20;2500283;-49
2022/12/13 01:39:27;;;;;;;;;53.00;40.00;;;;;-2.83;100.00;99175.38;6281672;20;2500292;-50
2022/12/13 01:41:58;;;;;;;;;52.00;41.00;;;;;-2.80;100.00;99189.31;6282187;20;2874316;-47
2022/12/13 01:44:55;;;;;;;;;58.00;44.50;;;;;-2.82;100.00;99187.59;6309208;20;2858618;-49
2022/12/13 01:47:48;;;;;;;;;50.50;44.50;;;;;-2.82;100.00;99198.97;6280535;20;2873286;-50
2022/12/13 01:50:32;;;;;;;;;55.00;43.00;;;;;-2.78;100.00;99198.03;6286866;20;2880597;-48
2022/12/13 01:53:02;;;;;;;;;61.00;46.50;;;;;-2.70;100.00;99197.91;6289333;20;2856533;-51
2022/12/13 01:55:35;;;;;;;;;55.00;39.50;;;;;-2.78;100.00;99205.91;6284552;20;2500274;-46
2022/12/13 01:58:08;;;;;;;;;55.00;45.00;;;;;-2.86;100.00;99215.69;6285729;20;2500293;-52
2022/12/13 02:00:37;;;;;;;;;61.00;45.33;;;;;-2.93;100.00;99214.88;6288941;20;2892193;-50
2022/12/13 02:03:09;;;;;;;;;61.00;47.00;;;;;-2.91;100.00;99221.00;6320379;20;2882671;-49
2022/12/13 02:06:08;;;;;;;;;49.50;38.50;;;;;-3.09;100.00;99213.38;6287900;20;2870093;-48
2022/12/13 02:08:38;;;;;;;;;50.00;43.00;;;;;-2.92;100.00;99211.38;6287436;20;2500304;-49
2022/12/13 02:11:07;;;;;;;;;46.50;43.00;;;;;-2.87;100.00;99206.94;6287869;20;2500303;-48
2022/12/13 02:13:37;;;;;;;;;55.00;45.00;;;;;-2.99;100.00;99212.34;6281332;20;2500421;-48
2022/12/13 02:16:34;;;;;;;;;55.50;43.00;;;;;-3.01;100.00;99208.88;6282073;20;2500254;-48
2022/12/13 02:19:59;;;;;;;;;55.00;44.00;;;;;-3.01;100.00;99213.28;6283638;20;2500340;-51
2022/12/13 02:23:08;;;;;;;;;55.00;45.00;;;;;-3.14;100.00;99215.19;6286622;20;2876335;-50
2022/12/13 02:26:39;;;;;;;;;50.00;45.00;;;;;-3.14;100.00;99207.31;6289621;20;2875660;-51
2022/12/13 02:29:48;;;;;;;;;63.00;47.00;;;;;-3.15;100.00;99211.72;6284833;20;2504478;-50
2022/12/13 02:32:36;;;;;;;;;57.00;42.00;;;;;-2.95;100.00;99211.44;6285595;20;2496319;-51
2022/12/13 02:35:10;;;;;;;;;56.00;45.00;;;;;-3.16;100.00;99201.22;6286654;20;2880746;-47
2022/12/13 02:38:13;;;;;;;;;56.00;48.50;;;;;-3.17;100.00;99202.13;6285122;20;2500272;-51
2022/12/13 02:41:26;;;;;;;;;58.50;43.00;;;;;-3.13;100.00;99204.69;6291288;20;2500302;-50
2022/12/13 02:44:10;;;;;;;;;63.50;45.50;;;;;-2.96;100.00;99204.44;6316078;20;2878430;-50
2022/12/13 02:47:38;;;;;;;;;61.50;48.00;;;;;-3.05;100.00;99204.59;6288395;20;2872515;-50
2022/12/13 02:50:10;;;;;;;;;61.50;47.00;;;;;-3.03;100.00;99205.41;6280268;20;2500298;-48
2022/12/13 02:52:41;;;;;;;;;53.00;45.00;;;;;-3.06;100.00;99208.06;6283600;20;2500584;-49
2022/12/13 02:55:15;;;;;;;;;66.50;48.00;;;;;-3.17;100.00;99204.75;6290531;20;2874357;-50
2022/12/13 02:57:47;;;;;;;;;64.00;48.00;;;;;-2.95;100.00;99214.06;6288795;20;2878430;-50
2022/12/13 03:00:22;;;;;;;;;51.50;47.50;;;;;-3.04;100.00;99214.19;6278464;20;2500448;-52
2022/12/13 03:03:22;;;;;;;;;65.33;47.00;;;;;-3.15;100.00;99216.09;6281021;20;2887886;-48
2022/12/13 03:06:28;;;;;;;;;64.00;48.00;;;;;-3.02;100.00;99207.16;6312060;20;2736867;-49
2022/12/13 03:09:47;;;;;;;;;57.50;45.00;;;;;-3.13;100.00;99215.19;6309724;20;2500291;-48
2022/12/13 03:15:55;;;;;;;;;53.00;45.00;;;;;-3.02;100.00;99219.44;6281652;20;2500328;-49
2022/12/13 03:18:29;;;;;;;;;57.00;45.00;;;;;-3.22;100.00;99220.56;6278671;20;2500521;-50
2022/12/13 03:21:05;;;;;;;;;63.50;48.00;;;;;-3.16;100.00;99215.25;6281433;20;2856651;-48
2022/12/13 03:23:36;;;;;;;;;60.00;48.00;;;;;-3.19;100.00;99219.66;6280849;20;2876455;-49
2022/12/13 03:26:23;;;;;;;;;53.00;44.00;;;;;-3.23;100.00;99212.72;6278336;20;2850346;-47
2022/12/13 03:29:01;;;;;;;;;55.00;46.00;;;;;-3.21;100.00;99217.06;6279466;20;2870116;-48
2022/12/13 03:31:55;;;;;;;;;25.33;21.33;;;;;-3.16;100.00;99222.22;6283520;20;3561873;-49
2022/12/13 03:34:24;;;;;;;;;64.00;50.00;;;;;-3.15;100.00;99221.34;6311837;20;2855587;-50
2022/12/13 03:37:10;;;;;;;;;55.00;47.00;;;;;-3.16;100.00;99224.84;6279926;20;2502374;-51
2022/12/13 03:39:39;;;;;;;;;66.50;49.00;;;;;-3.15;100.00;99223.97;6281464;20;2878494;-52
2022/12/13 03:42:08;;;;;;;;;61.00;45.00;;;;;-2.94;100.00;99221.03;6278516;20;2881546;-50
2022/12/13 03:44:36;;;;;;;;;63.50;48.50;;;;;-3.07;100.00;99224.75;6278433;20;2872153;-48
2022/12/13 03:47:05;;;;;;;;;58.50;45.00;;;;;-3.05;100.00;99225.59;6281364;20;2880523;-47
2022/12/13 03:49:34;;;;;;;;;68.50;50.50;;;;;-2.96;100.00;99222.81;6280417;20;2863853;-48
2022/12/13 03:52:02;;;;;;;;;63.50;45.00;;;;;-3.03;100.00;99225.56;6275892;20;2498194;-47
2022/12/13 03:54:32;;;;;;;;;66.00;48.67;;;;;-3.17;100.00;99233.63;6281414;20;2858664;-47
2022/12/13 03:57:00;;;;;;;;;75.50;54.00;;;;;-3.32;100.00;99232.06;6310308;20;2506622;-48
2022/12/13 03:59:28;;;;;;;;;61.00;48.00;;;;;-3.25;100.00;99235.47;6276472;20;2495106;-48
2022/12/13 04:01:57;;;;;;;;;62.50;48.50;;;;;-3.22;100.00;99232.81;6281790;20;2853815;-51
2022/12/13 04:04:25;;;;;;;;;62.00;48.00;;;;;-3.35;100.00;99240.84;6278291;20;2873285;-48
2022/12/13 04:06:54;;;;;;;;;58.00;45.00;;;;;-3.39;100.00;99244.41;6284276;20;2882722;-50
2022/12/13 04:09:23;;;;;;;;;54.00;42.50;;;;;-3.27;100.00;99248.63;6280209;20;2875368;-50
2022/12/13 04:14:37;;;;;;;;;57.50;46.00;;;;;-3.31;100.00;99241.69;6280205;20;2500397;-50
2022/12/13 04:17:06;;;;;;;;;62.50;48.50;;;;;-3.29;100.00;99249.53;6279854;20;2854528;-52
2022/12/13 04:19:35;;;;;;;;;53.33;44.00;;;;;-3.22;100.00;99248.56;6282299;20;2879643;-48
2022/12/13 04:22:04;;;;;;;;;59.00;48.00;;;;;-3.28;100.00;99246.03;6313519;20;2862059;-47
2022/12/13 04:24:33;;;;;;;;;62.00;52.00;;;;;-3.19;100.00;99245.91;6279547;20;2855511;-49
2022/12/13 04:27:01;;;;;;;;;48.50;41.00;;;;;-3.29;100.00;99246.91;6281602;20;2500286;-49
2022/12/13 04:29:30;;;;;;;;;54.50;38.50;;;;;-3.17;100.00;99247.63;6279387;20;2869206;-51
2022/12/13 04:32:03;;;;;;;;;51.50;47.00;;;;;-3.35;100.00;99251.34;6271289;20;2502399;-49
2022/12/13 04:34:32;;;;;;;;;66.50;47.00;;;;;-3.41;100.00;99248.78;6280573;20;2884748;-50
2022/12/13 04:37:05;;;;;;;;;63.50;51.50;;;;;-3.39;100.00;99247.03;6280682;20;2848291;-48
2022/12/13 04:39:34;;;;;;;;;61.00;45.50;;;;;-3.51;100.00;99244.53;6279804;20;2890925;-51
2022/12/13 04:42:02;;;;;;;;;68.00;48.50;;;;;-3.41;100.00;99246.16;6280341;20;2516335;-49
2022/12/13 04:44:31;;;;;;;;;66.00;49.00;;;;;-3.38;100.00;99240.03;6280473;20;2846083;-47
2022/12/13 04:47:04;;;;;;;;;62.00;46.00;;;;;-3.36;100.00;99244.38;6278069;20;2500433;-49
2022/12/13 04:49:34;;;;;;;;;55.00;43.00;;;;;-3.19;100.00;99245.91;6278882;20;2876031;-52
2022/12/13 04:52:02;;;;;;;;;35.00;30.50;;;;;-3.30;100.00;99246.03;6276766;20;2840894;-51
2022/12/13 04:54:31;;;;;;;;;57.50;44.00;;;;;-3.33;100.00;99259.22;6272299;20;2500415;-53
2022/12/13 04:57:10;;;;;;;;;60.50;43.50;;;;;-3.27;100.00;99253.88;6272894;20;2500300;-49
2022/12/13 04:59:39;;;;;;;;;72.50;48.50;;;;;-3.48;100.00;99241.88;6275891;20;2872264;-47
2022/12/13 05:02:09;;;;;;;;;69.50;51.00;;;;;-3.53;100.00;99251.56;6280200;20;2862775;-48
2022/12/13 05:04:38;;;;;;;;;57.50;48.00;;;;;-3.46;100.00;99255.84;6279579;20;2845082;-51
2022/12/13 05:07:06;;;;;;;;;59.50;48.00;;;;;-3.44;100.00;99246.22;6274250;20;2508617;-53
2022/12/13 05:09:35;;;;;;;;;70.00;50.00;;;;;-3.52;100.00;99248.06;6274078;20;2504487;-53
2022/12/13 05:12:05;;;;;;;;;84.00;63.00;;;;;-3.52;100.00;99253.31;6276978;20;2898334;-48
2022/12/13 05:14:52;;;;;;;;;87.00;63.00;;;;;-3.66;100.00;99256.09;6311707;20;2898437;-48
2022/12/13 05:17:21;;;;;;;;;75.00;54.00;;;;;-3.75;100.00;99259.69;6305322;20;2886829;-50
2022/12/13 05:19:51;;;;;;;;;73.33;54.67;;;;;-3.58;100.00;99262.13;6277934;20;2882759;-48
2022/12/13 05:22:20;;;;;;;;;70.00;53.00;;;;;-3.51;100.00;99262.91;6309699;20;2875281;-48
2022/12/13 05:24:49;;;;;;;;;75.00;56.00;;;;;-3.54;100.00;99255.94;6278276;20;2867996;-50
2022/12/13 05:27:18;;;;;;;;;63.50;52.00;;;;;-3.60;100.00;99257.78;6278138;20;2848181;-47
2022/12/13 05:29:54;;;;;;;;;70.50;53.00;;;;;-3.64;100.00;99254.31;6273658;20;2497168;-48
2022/12/13 05:32:37;;;;;;;;;58.00;48.00;;;;;-3.60;100.00;99250.78;6272257;20;2500284;-51
2022/12/13 05:35:14;;;;;;;;;75.50;52.00;;;;;-3.76;100.00;99246.59;6275328;20;2865884;-52
2022/12/13 05:37:51;;;;;;;;;67.00;52.00;;;;;-3.83;100.00;99248.41;6272829;20;2505514;-48
2022/12/13 05:40:26;;;;;;;;;67.00;50.00;;;;;-3.65;100.00;99251.72;6276138;20;2505562;-48
2022/12/13 05:42:54;;;;;;;;;52.50;48.00;;;;;-3.72;100.00;99255.28;6272288;20;2502548;-51
2022/12/13 05:45:32;;;;;;;;;69.50;49.00;;;;;-3.74;100.00;99265.78;6271769;20;2502582;-48
2022/12/13 05:48:01;;;;;;;;;69.00;49.00;;;;;-3.67;100.00;99262.22;6279910;20;2838836;-52
2022/12/13 05:50:30;;;;;;;;;68.00;49.00;;;;;-3.56;100.00;99264.72;6273182;20;2874360;-50
2022/12/13 05:52:58;;;;;;;;;76.50;54.00;;;;;-3.60;100.00;99263.91;6273170;20;2883688;-49
2022/12/13 05:55:27;;;;;;;;;68.00;51.67;;;;;-3.70;100.00;99270.13;6278535;20;3605549;-51
2022/12/13 05:57:58;;;;;;;;;71.50;56.00;;;;;-3.78;100.00;99270.22;6275897;20;2872344;-49
2022/12/13 06:00:30;;;;;;;;;79.00;60.50;;;;;-3.80;100.00;99264.09;6278181;20;2884657;-48
2022/12/13 06:02:59;;;;;;;;;71.50;54.00;;;;;-3.72;100.00;99271.03;6272842;20;2499300;-50
2022/12/13 06:05:30;;;;;;;;;69.50;54.00;;;;;-3.64;100.00;99282.31;6271127;20;2492988;-47
2022/12/13 06:07:58;;;;;;;;;68.50;52.00;;;;;-3.88;100.00;99281.66;6274566;20;2505611;-48
2022/12/13 06:10:28;;;;;;;;;88.33;58.33;;;;;-3.89;100.00;99268.59;6276785;20;2882615;-51
2022/12/13 06:13:06;;;;;;;;;60.00;51.00;;;;;-3.69;100.00;99281.47;6313531;20;2857565;-47
2022/12/13 06:16:00;;;;;;;;;61.00;48.00;;;;;-3.73;100.00;99287.66;6280641;20;2861862;-50
2022/12/13 06:18:33;;;;;;;;;67.00;51.00;;;;;-3.84;100.00;99279.91;6274398;20;2510695;-50
2022/12/13 06:21:06;;;;;;;;;64.50;48.50;;;;;-3.81;100.00;99288.59;6281016;20;2857592;-50
2022/12/13 06:23:34;;;;;;;;;70.00;53.00;;;;;-3.74;100.00;99284.16;6276044;20;2511575;-51
2022/12/13 06:26:06;;;;;;;;;71.00;51.50;;;;;-3.71;100.00;99291.13;6274207;20;2870099;-53
2022/12/13 06:28:35;;;;;;;;;65.33;49.67;;;;;-3.65;100.00;99286.69;6278885;20;2872219;-50
2022/12/13 06:31:04;;;;;;;;;67.00;52.00;;;;;-3.57;100.00;99304.97;6307298;20;2842071;-50
2022/12/13 06:33:37;;;;;;;;;109.00;87.67;;;;;-3.57;100.00;99302.34;6276895;20;3674232;-52
2022/12/13 06:36:07;;;;;;;;;67.00;54.00;;;;;-3.69;100.00;99298.09;6311736;20;2866017;-49
2022/12/13 06:38:35;;;;;;;;;44.00;38.50;;;;;-3.62;100.00;99296.28;6275293;20;2502409;-50
2022/12/13 06:41:15;;;;;;;;;62.00;48.00;;;;;-3.68;100.00;99301.59;6284786;20;2858595;-50
2022/12/13 06:43:46;;;;;;;;;72.00;55.50;;;;;-3.55;100.00;99305.84;6286070;20;2864988;-49
2022/12/13 06:46:15;;;;;;;;;72.50;50.50;;;;;-3.59;100.00;99306.72;6282116;20;2874302;-49
2022/12/13 06:48:43;;;;;;;;;63.50;48.50;;;;;-3.50;100.00;99308.38;6276647;20;2506676;-47
2022/12/13 06:51:11;;;;;;;;;69.00;54.00;;;;;-3.63;100.00;99307.66;6282242;20;2498197;-47
2022/12/13 06:53:50;;;;;;;;;70.00;52.00;;;;;-3.50;100.00;99309.28;6281243;20;2883598;-48
2022/12/13 06:56:19;;;;;;;;;47.33;32.67;;;;;-3.31;100.00;99316.03;6317387;20;3572156;-48
2022/12/13 06:58:47;;;;;;;;;69.50;52.00;;;;;-3.48;100.00;99312.72;6312465;20;2489870;-50
2022/12/13 07:01:18;;;;;;;;;74.00;55.00;;;;;-3.38;100.00;99310.88;6283265;20;2500333;-48
2022/12/13 07:03:55;;;;;;;;;67.00;51.00;;;;;-3.24;100.00;99315.97;6282427;20;3607679;-48
2022/12/13 07:06:25;;;;;;;;;69.50;53.00;;;;;-3.24;100.00;99323.84;6274800;20;2503439;-48
2022/12/13 07:08:57;;;;;;;;;70.00;55.00;;;;;-3.06;100.00;99331.50;6283853;20;2856525;-50
2022/12/13 07:11:32;;;;;;;;;67.00;52.00;;;;;-3.06;100.00;99339.38;6283757;20;2869050;-48
2022/12/13 07:14:00;;;;;;;;;60.50;49.00;;;;;-3.00;100.00;99330.53;6282801;20;2864937;-52
2022/12/13 07:16:28;;;;;;;;;76.00;57.00;;;;;-2.75;100.00;99342.47;6279085;20;2500280;-49
2022/12/13 07:19:00;;;;;;;;;74.00;54.67;;;;;-2.75;100.00;99341.63;6284768;20;2876364;-49
2022/12/13 07:21:31;;;;;;;;;75.00;52.67;;;;;-2.93;100.00;99338.34;6312028;20;2894129;-52
2022/12/13 07:24:00;;;;;;;;;64.50;53.00;;;;;-2.90;100.00;99340.94;6314162;20;2859658;-52
2022/12/13 07:26:28;;;;;;;;;75.00;52.00;;;;;-2.81;100.00;99341.72;6277251;20;2493019;-52
2022/12/13 07:28:56;;;;;;;;;69.50;55.50;;;;;-2.81;100.00;99337.31;6280445;20;2500335;-49
2022/12/13 07:31:25;;;;;;;;;74.00;56.00;;;;;-2.62;100.00;99342.31;6283127;20;2883824;-51
2022/12/13 07:33:55;;;;;;;;;98.33;73.00;;;;;-2.50;100.00;99350.91;6283352;20;3659653;-50
2022/12/13 07:36:23;;;;;;;;;78.50;56.00;;;;;-2.58;100.00;99349.25;6312085;20;2472242;-53
2022/12/13 07:38:56;;;;;;;;;71.50;53.50;;;;;-2.60;100.00;99351.06;6281961;20;2874243;-51
2022/12/13 07:41:26;;;;;;;;;71.50;55.50;;;;;-2.41;100.00;99351.66;6282114;20;2866933;-48
2022/12/13 07:43:56;;;;;;;;;94.33;72.33;;;;;-2.33;100.00;99350.66;6284716;20;3666937;-52
2022/12/13 07:46:25;;;;;;;;;98.33;72.33;;;;;-2.21;99.25;99352.25;6310458;20;3651334;-50
2022/12/13 07:49:03;;;;;;;;;84.33;61.67;;;;;-2.08;98.88;99360.78;6314995;20;3648202;-49
2022/12/13 07:51:34;;;;;;;;;83.00;59.33;;;;;-1.87;98.46;99367.47;6314412;20;2880605;-48
2022/12/13 07:54:04;;;;;;;;;81.67;63.33;;;;;-1.95;97.94;99350.94;6313716;20;3634629;-50
2022/12/13 07:56:35;;;;;;;;;81.50;55.50;;;;;-2.09;98.50;99369.59;6312966;20;2875389;-52
2022/12/13 07:59:04;;;;;;;;;81.50;62.50;;;;;-1.95;98.50;99375.47;6284528;20;2893066;-51
2022/12/13 08:01:34;;;;;;;;;73.67;58.00;;;;;-1.62;97.65;99373.19;6282146;20;3619011;-48
2022/12/13 08:04:04;;;;;;;;;77.33;58.33;;;;;-1.68;98.01;99376.81;6317336;20;2890966;-49
2022/12/13 08:06:38;;;;;;;;;74.00;57.00;;;;;-1.57;97.15;99380.13;6312715;20;2877412;-52
2022/12/13 08:09:06;;;;;;;;;74.50;51.50;;;;;-1.67;96.96;99383.81;6280042;20;2905561;-55
2022/12/13 08:11:35;;;;;;;;;74.00;57.00;;;;;-1.40;96.88;99376.31;6284228;20;2887838;-51
2022/12/13 08:14:06;;;;;;;;;86.67;63.33;;;;;-1.37;96.24;99379.78;6283793;20;3663869;-53
2022/12/13 08:16:35;;;;;;;;;89.67;65.00;;;;;-1.28;96.47;99378.72;6312017;20;3658736;-51
2022/12/13 08:19:05;;;;;;;;;94.33;69.00;;;;;-1.01;95.60;99384.38;6313515;20;3652341;-49
2022/12/13 08:21:40;;;;;;;;;87.00;62.67;;;;;-1.00;94.71;99388.72;6311876;20;3658576;-49
2022/12/13 08:24:30;;;;;;;;;66.50;51.50;;;;;-1.25;95.32;99383.94;6315441;20;2877764;-48
2022/12/13 08:27:01;;;;;;;;;66.00;53.00;;;;;-1.16;95.91;99391.69;6281565;20;2857573;-49
2022/12/13 08:29:35;;;;;;;;;73.50;56.50;;;;;-1.25;95.83;99386.56;6284624;20;2874229;-50
2022/12/13 08:32:09;;;;;;;;;87.00;64.67;;;;;-0.74;94.59;99391.75;6281855;20;3639876;-49
2022/12/13 08:34:40;;;;;;;;;75.00;60.50;;;;;-0.72;93.64;99400.47;6314462;20;2874320;-50
2022/12/13 08:37:08;;;;;;;;;63.00;53.00;;;;;-0.76;93.31;99398.81;6276849;20;2499275;-48
2022/12/13 08:39:38;;;;;;;;;71.00;56.00;;;;;-0.73;92.94;99396.09;6275724;20;2500338;-54
2022/12/13 08:42:15;;;;;;;;;78.00;60.00;;;;;-0.44;93.33;99397.25;6282519;20;2885963;-50
2022/12/13 08:44:50;;;;;;;;;76.00;58.33;;;;;-0.33;93.31;99400.53;6310487;20;2886931;-47
2022/12/13 08:47:24;;;;;;;;;76.33;57.33;;;;;-0.32;92.57;99399.59;6311038;20;3650250;-46
2022/12/13 08:49:58;;;;;;;;;67.50;49.50;;;;;-0.53;92.49;99398.28;6309632;20;2867453;-47
2022/12/13 08:52:34;;;;;;;;;67.50;47.00;;;;;-0.45;92.16;99395.50;6281613;20;2872095;-46
2022/12/13 08:55:14;;;;;;;;;62.50;49.00;;;;;-0.36;92.04;99395.31;6283384;20;2865096;-46
2022/12/13 08:57:44;;;;;;;;;63.50;47.00;;;;;-0.40;91.07;99391.00;6279201;20;2860688;-47
2022/12/13 09:00:18;;;;;;;;;68.33;49.67;;;;;-0.20;91.29;99395.84;6278744;20;2885709;-47
2022/12/13 09:02:48;;;;;;;;;52.67;41.00;;;;;0.06;89.34;99395.25;6312112;20;2869254;-48
2022/12/13 09:05:17;;;;;;;;;50.50;35.50;;;;;-0.26;88.58;99391.56;6309979;20;2877405;-46
2022/12/13 09:08:03;;;;;;;;;47.50;40.50;;;;;-0.25;89.09;99393.28;6279072;20;2857600;-50
2022/12/13 09:11:02;;;;;;;;;53.00;43.00;;;;;0.15;88.85;99392.38;6283130;20;2864884;-48
2022/12/13 09:13:51;;;;;;;;;42.67;39.33;;;;;0.10;88.09;99396.03;6283929;20;2868128;-47
2022/12/13 09:16:29;;;;;;;;;40.00;37.50;;;;;0.09;88.31;99392.53;6314099;20;2862832;-48
2022/12/13 09:19:05;;;;;;;;;41.50;34.00;;;;;0.18;87.86;99397.56;6277964;20;2504454;-47
2022/12/13 09:21:52;;;;;;;;;34.00;30.50;;;;;-0.06;86.85;99390.25;6279112;20;2500269;-46
2022/12/13 09:24:30;;;;;;;;;41.50;35.00;;;;;0.38;86.54;99388.31;6278480;20;2855606;-49
2022/12/13 09:27:05;;;;;;;;;57.67;46.33;;;;;0.85;86.47;99383.56;6280971;20;2875283;-48
2022/12/13 09:29:38;;;;;;;;;54.67;43.33;;;;;0.54;86.15;99384.38;6309460;20;2870282;-48
2022/12/13 09:32:07;;;;;;;;;46.00;39.67;;;;;0.21;86.40;99376.41;6310899;20;2871272;-48
2022/12/13 09:34:38;;;;;;;;;42.00;31.50;;;;;0.78;85.63;99376.72;6311389;20;2862844;-51
2022/12/13 09:37:07;;;;;;;;;48.67;39.33;;;;;0.87;85.42;99384.41;6282616;20;2877361;-49
2022/12/13 09:39:37;;;;;;;;;56.67;40.67;;;;;0.95;84.54;99382.41;6312742;20;3622271;-47
2022/12/13 09:42:21;;;;;;;;;60.50;46.00;;;;;1.28;83.53;99385.00;6312659;20;2851472;-47
2022/12/13 09:45:04;;;;;;;;;57.00;45.00;;;;;1.07;84.43;99382.06;6281558;20;2854584;-47
2022/12/13 09:47:41;;;;;;;;;47.00;40.50;;;;;1.51;83.02;99379.06;6277770;20;2860717;-47
2022/12/13 09:50:33;;;;;;;;;40.00;33.50;;;;;1.62;81.51;99376.09;6278352;20;2850293;-50
2022/12/13 09:53:06;;;;;;;;;37.00;35.00;;;;;1.59;81.13;99373.53;6277179;20;2500289;-46
2022/12/13 09:55:51;;;;;;;;;34.00;30.00;;;;;1.58;80.74;99370.03;6275613;20;2500334;-49
2022/12/13 09:58:30;;;;;;;;;61.33;43.00;;;;;1.69;82.06;99377.66;6278085;20;3631535;-48
2022/12/13 10:00:59;;;;;;;;;46.00;39.00;;;;;1.54;81.54;99377.19;6307709;20;2854485;-46
2022/12/13 10:03:28;;;;;;;;;40.50;34.50;;;;;1.33;81.22;99375.16;6277496;20;2864999;-49
2022/12/13 10:06:07;;;;;;;;;48.00;36.00;;;;;1.30;81.50;99375.25;6275898;20;2876457;-50
2022/12/13 10:08:55;;;;;;;;;41.50;37.00;;;;;1.33;81.74;99369.88;6276933;20;2853558;-49
2022/12/13 10:11:28;;;;;;;;;54.00;42.00;;;;;1.25;81.74;99371.88;6280668;20;2862870;-50
2022/12/13 10:14:35;;;;;;;;;40.00;36.50;;;;;1.16;81.71;99367.72;6282434;20;2865904;-50
2022/12/13 10:17:08;;;;;;;;;44.00;37.00;;;;;1.22;82.16;99366.69;6286668;20;2500820;-48
2022/12/13 10:19:45;;;;;;;;;51.67;39.00;;;;;1.41;81.41;99359.06;6272243;20;2883765;-48
2022/12/13 10:22:18;;;;;;;;;33.50;26.50;;;;;1.15;79.53;99357.19;6314546;20;2854441;-48
2022/12/13 10:25:04;;;;;;;;;35.00;30.00;;;;;1.53;79.34;99362.22;6280213;20;2500333;-51
2022/12/13 10:27:44;;;;;;;;;29.00;27.50;;;;;1.44;79.04;99357.19;6276500;20;2500279;-50
2022/12/13 10:30:24;;;;;;;;;45.50;36.50;;;;;1.58;78.54;99355.91;6281841;20;2861742;-49
2022/12/13 10:33:00;;;;;;;;;41.00;36.50;;;;;1.66;78.30;99353.91;6281452;20;2500389;-52
2022/12/13 10:35:36;;;;;;;;;37.00;30.50;;;;;1.68;77.12;99349.44;6278916;20;2500315;-49
2022/12/13 10:38:15;;;;;;;;;45.33;31.67;;;;;1.68;76.77;99338.84;6284170;20;2879441;-49
2022/12/13 10:40:45;;;;;;;;;30.50;28.00;;;;;1.68;75.87;99336.19;6313912;20;2500297;-48
2022/12/13 10:43:19;;;;;;;;;33.50;26.50;;;;;2.09;75.52;99334.03;6281271;20;2500296;-47
2022/12/13 10:46:02;;;;;;;;;36.00;24.00;;;;;1.87;76.67;99334.72;6285845;20;2869208;-46
2022/12/13 10:48:40;;;;;;;;;36.00;30.00;;;;;2.09;75.03;99329.59;6282615;20;2847183;-48
2022/12/13 10:51:17;;;;;;;;;32.50;27.50;;;;;1.98;75.24;99343.19;6280795;20;2500316;-50
2022/12/13 10:53:54;;;;;;;;;28.50;26.00;;;;;2.24;75.06;99344.13;6281066;20;2846172;-48
2022/12/13 10:56:36;;;;;;;;;32.00;29.50;;;;;2.15;74.65;99344.41;6282631;20;2838849;-48
2022/12/13 10:59:37;;;;;;;;;26.50;24.00;;;;;1.89;75.01;99346.09;6281385;20;2500281;-48
2022/12/13 11:02:36;;;;;;;;;33.00;24.50;;;;;1.92;74.29;99348.69;6282326;20;2500510;-48
2022/12/13 11:05:32;;;;;;;;;39.00;32.50;;;;;2.22;75.54;99340.66;6284625;20;2848200;-49
2022/12/13 11:08:25;;;;;;;;;30.00;25.00;;;;;2.23;74.88;99337.06;6279051;20;2849248;-47
2022/12/13 11:11:03;;;;;;;;;37.50;35.50;;;;;1.85;76.05;99331.25;6284932;20;2858610;-53
2022/12/13 11:13:55;;;;;;;;;24.00;24.00;;;;;1.84;74.98;99324.22;6283089;20;2835762;-52
2022/12/13 11:16:34;;;;;;;;;31.50;27.00;;;;;1.85;74.33;99327.75;6280667;20;2500815;-52
2022/12/13 11:19:17;;;;;;;;;34.50;30.00;;;;;2.09;74.91;99328.72;6280756;20;2855495;-49
2022/12/13 11:21:49;;;;;;;;;36.50;29.50;;;;;1.92;76.57;99316.03;6279324;20;2860703;-51
2022/12/13 11:24:34;;;;;;;;;30.00;25.00;;;;;1.93;74.74;99320.41;6279147;20;2500341;-50
2022/12/13 11:28:11;;;;;;;;;32.00;27.50;;;;;2.00;75.00;99323.72;6281588;20;2854600;-46
2022/12/13 11:31:06;;;;;;;;;29.67;25.00;;;;;2.11;74.26;99324.25;6280063;20;3599224;-48
2022/12/13 11:34:41;;;;;;;;;33.50;29.50;;;;;2.22;74.01;99319.47;6282807;20;2852398;-49
2022/12/13 11:38:09;;;;;;;;;43.00;29.33;;;;;1.98;75.10;99314.06;6280849;20;2873274;-51
2022/12/13 11:40:45;;;;;;;;;28.00;24.00;;;;;2.11;73.15;99311.00;6313407;20;2498218;-48
2022/12/13 11:43:41;;;;;;;;;28.00;24.00;;;;;2.33;72.76;99325.25;6280970;20;2500301;-46